Capitol Logistics 2355

Operating for ABX



KJFK
John F Kennedy International Airport
New York, New York
KMIA
Miami International Airport
Miami, Florida

Activity Log

Date Flight Route Aircraft Duration
04/22/2022 CPX2355 WAVEY EMJAY J174 SWL CEBEE WETRO DIW AR22 HOAGG SLFSH1 B752 2h 48m
01/31/2022 CPX2355 RBV Q430 COPES Q75 ENEME Q65 DOFFY DANSE FROGZ1 B752 2h 31m
10/31/2021 CPX2355 RBV Q430 COPES Q75 ENEME Q65 DOFFY DANSE FROGZ1 B762 2h 56m

Route Details

Aircraft Information
Group: Boeing Common
Types: B752,B762,B763
Route Data
Demand: H
Distance: 950nm
Duration: 2h 31m
Recm'd Route: RBV Q430 COPES Q75 ENEME Q65 DOFFY DANSE FROGZ1
Origin Wx: KJFK 272151Z 19015KT 10SM -RA FEW004 BKN060 OVC110 19/18 A2985 RMK AO2 PK WND 19028/2128 LTG DSNT N RAB19 SLP108 P0000 T01890178 $
Dest. Wx: KMIA 272153Z 15008G19KT 10SM FEW035 SCT100 SCT200 BKN250 29/22 A2996 RMK AO2 LTG DSNT NW SLP146 CB DSNT NW MOV NE T02890222 $
Notes:

Financial History
Total Freight: 200,177lbs
Average Load: 66,726lbs/flt
Fuel Used: 72,407lbs
Avg. Fuel Used: 24,136lbs/flt
Fuel Expense: $24,892
Avg. Fuel Expense: $8,297
Avg. Fuel Cost: $0.35/lbs
Total Gross Income: $472,884
Pilot Pay: $557
Total Expenses: $76,477
Total Revenue: $370,153
Average Revenue: $157,628.10